Mugan — 9HA2962 — position and weather

sailwx.info

Track history (hours):
 
Tides and Currents Weather Stations Pressure Air Temp Water Temp Dewpoint Dewpoint Depression Visibility Wind Speed Wind Dir Waves Ship Positions

Mugan

Last reported at 2015-Mar-28 15:32 UTC. Time now 2015-Mar-28 15:59 UTC.
Position N 53°47' E 006°02'.

Length 140 m; draft 4.4 m.

Type: Ship. MMSI: 256914000.

Date/timePositionNaut miles runAvg speedWind from/ knotsBaromVisibWave heightAir tempDewpointWater temp
2015-Mar-28 15:32N 53°47' E 006°02'46 7.6
2015-Mar-28 09:33N 53°59' E 007°17'10 9.4
2015-Mar-28 08:31N 54°01' E 007°33'9 9.6
2015-Mar-28 07:34N 54°02' E 007°48'9 9.3
2015-Mar-28 06:32N 54°01' E 008°05'9 8.8
2015-Mar-28 05:33N 53°60' E 008°19'9 9.5
2015-Mar-28 04:33N 53°58' E 008°35'7 7.4
2015-Mar-28 03:33N 53°53' E 008°43'8 7.6
2015-Mar-28 02:33N 53°51' E 008°56'10 9.9
2015-Mar-28 01:33N 53°53' E 009°13'1111.3
2015-Mar-28 00:33N 53°45' E 009°26'1211.8
2015-Mar-27 23:33N 53°35' E 009°37'1110.8
2015-Mar-27 22:33N 53°33' E 009°55'2 1.5
2015-Mar-27 21:28N 53°31' E 009°56'0 0.0
2015-Mar-27 20:28N 53°31' E 009°56'0 0.0
2015-Mar-27 19:31N 53°31' E 009°56'0 0.0
2015-Mar-27 18:28N 53°31' E 009°56'0 0.0
2015-Mar-27 17:28N 53°31' E 009°56'0 0.0
2015-Mar-27 16:28N 53°31' E 009°56'0 0.0
2015-Mar-27 15:28N 53°31' E 009°56'0 0.0
2015-Mar-27 14:32N 53°31' E 009°56'0 0.0
2015-Mar-27 13:22N 53°31' E 009°56'0 0.0
2015-Mar-27 12:25N 53°31' E 009°56'0 0.0
2015-Mar-27 11:19N 53°31' E 009°56'0 0.0
2015-Mar-27 10:31N 53°31' E 009°56'0 0.0
2015-Mar-27 09:28N 53°31' E 009°56'0 0.0
2015-Mar-27 08:28N 53°31' E 009°56'0 0.0
2015-Mar-27 07:28N 53°31' E 009°56'0 0.0
2015-Mar-27 06:16N 53°31' E 009°56'0 0.0
2015-Mar-27 05:28N 53°31' E 009°56'0 0.0
2015-Mar-27 04:25N 53°31' E 009°56'0 0.0
2015-Mar-27 03:31N 53°31' E 009°56'0 0.0
2015-Mar-27 02:31N 53°31' E 009°56'0 0.0
2015-Mar-27 01:28N 53°31' E 009°56'0 0.0
2015-Mar-27 00:31N 53°31' E 009°56'0 0.0
2015-Mar-26 23:31N 53°31' E 009°56'0 0.0
2015-Mar-26 22:25N 53°31' E 009°56'0 0.0
2015-Mar-26 21:31N 53°31' E 009°56'0 0.0
2015-Mar-26 20:28N 53°31' E 009°56'0 0.0
2015-Mar-26 19:25N 53°31' E 009°56'0 0.0
2015-Mar-26 18:28N 53°31' E 009°56'0 0.0
2015-Mar-26 17:28N 53°31' E 009°56'0 0.0
2015-Mar-26 16:32N 53°31' E 009°56'0 0.5
2015-Mar-26 15:33N 53°32' E 009°56'9 9.3
2015-Mar-26 14:33N 53°34' E 009°41'9 9.0
2015-Mar-26 13:33N 53°40' E 009°30'8 8.3
2015-Mar-26 12:33N 53°47' E 009°23'8 7.8
2015-Mar-26 11:33N 53°53' E 009°13'6 6.1
2015-Mar-26 10:34N 53°52' E 009°03'7 6.6
2015-Mar-26 09:33N 53°50' E 008°52'6 5.7
2015-Mar-26 08:33N 53°52' E 008°43'6 6.2
2015-Mar-26 07:33N 53°57' E 008°37'8 8.0
2015-Mar-26 06:33N 53°59' E 008°23'9 8.7
2015-Mar-26 05:32N 53°59' E 008°08'5 5.0
2015-Mar-26 04:32N 54°04' E 008°05'0 0.1
2015-Mar-26 03:31N 54°04' E 008°05'0 0.0
2015-Mar-26 02:28N 54°04' E 008°05'0 0.0
2015-Mar-26 01:31N 54°04' E 008°05'0 0.0
2015-Mar-26 00:28N 54°04' E 008°05'0 0.0
2015-Mar-25 23:31N 54°04' E 008°05'0 0.1
2015-Mar-25 22:22N 54°04' E 008°05'0 0.1
2015-Mar-25 21:28N 54°04' E 008°05'0 0.0
2015-Mar-25 20:31N 54°04' E 008°05'0 0.0
2015-Mar-25 19:25N 54°04' E 008°05'0 0.0
2015-Mar-25 18:19N 54°04' E 008°05'0 0.0
2015-Mar-25 17:31N 54°04' E 008°05'0 0.0
2015-Mar-25 16:31N 54°04' E 008°05'0 0.0
2015-Mar-25 15:28N 54°04' E 008°05'0 0.0
2015-Mar-25 14:28N 54°04' E 008°05'1 1.1
2015-Mar-25 13:33N 54°03' E 008°04'9 8.5
2015-Mar-25 12:32N 53°58' E 007°53'9 8.7
2015-Mar-25 11:32N 53°55' E 007°39'9 8.7
2015-Mar-25 10:33N 53°53' E 007°25'8 8.4
2015-Mar-25 09:33N 53°51' E 007°11'7 6.9
2015-Mar-25 08:31N 53°49' E 006°59'22 5.5
2015-Mar-25 04:29N 53°44' E 006°23'6 6.3
2015-Mar-25 03:33N 53°43' E 006°13'7 6.5
2015-Mar-25 02:33N 53°41' E 006°02'7 7.1
2015-Mar-25 01:33N 53°39' E 005°51'8 7.8
2015-Mar-25 00:34N 53°36' E 005°39'8 8.3
2015-Mar-24 23:33N 53°33' E 005°26'8 8.5
2015-Mar-24 22:33N 53°30' E 005°12'9 8.6
2015-Mar-24 21:33N 53°27' E 004°59'9 8.8
2015-Mar-24 20:33N 53°24' E 004°45'27 9.1
2015-Mar-24 17:33N 53°00' E 004°23'9 8.9
2015-Mar-24 16:34N 52°52' E 004°16'8 8.2
2015-Mar-24 15:33N 52°45' E 004°09'8 8.0
2015-Mar-24 14:33N 52°39' E 004°02'8 8.0
2015-Mar-24 13:33N 52°32' E 003°55'9 7.8
2015-Mar-24 12:22N 52°23' E 003°53'7 7.7
2015-Mar-24 11:31N 52°16' E 003°53'8 8.0
2015-Mar-24 10:33N 52°08' E 003°54'7 6.9
2015-Mar-24 09:33N 52°02' E 003°57'1313.0
2015-Mar-24 08:33N 51°55' E 004°15'4 3.8
2015-Mar-24 07:28N 51°54' E 004°22'0 0.0
2015-Mar-24 06:28N 51°54' E 004°22'0 0.0
2015-Mar-24 05:31N 51°54' E 004°22'0 0.0
2015-Mar-24 04:28N 51°54' E 004°22'0 0.0
2015-Mar-24 03:31N 51°54' E 004°22'0 0.0
2015-Mar-24 02:31N 51°54' E 004°22'0 0.0
2015-Mar-24 01:31N 51°54' E 004°22'0 0.0
2015-Mar-24 00:25N 51°54' E 004°22'0 0.0
2015-Mar-23 23:28N 51°54' E 004°22'0 0.0
2015-Mar-23 22:22N 51°54' E 004°22'0 0.0
2015-Mar-23 21:22N 51°54' E 004°22'0 0.0
2015-Mar-23 20:28N 51°54' E 004°22'0 0.0
2015-Mar-23 19:31N 51°54' E 004°22'0 0.0
2015-Mar-23 18:22N 51°54' E 004°22'0 0.0
2015-Mar-23 17:31N 51°54' E 004°22'0 0.0
2015-Mar-23 16:28N 51°54' E 004°22'0 0.0
2015-Mar-23 15:31N 51°54' E 004°22'0 0.0
2015-Mar-23 14:28N 51°54' E 004°22'0 0.0
2015-Mar-23 13:28N 51°54' E 004°22'0 0.0
2015-Mar-23 12:28N 51°54' E 004°22'0 0.0
2015-Mar-23 11:22N 51°54' E 004°22'0 0.0
2015-Mar-23 10:31N 51°54' E 004°22'0 0.0
2015-Mar-23 09:28N 51°54' E 004°22'0 0.0
2015-Mar-23 08:22N 51°54' E 004°22'0 0.0
2015-Mar-23 07:31N 51°54' E 004°22'0 0.0
2015-Mar-23 06:28N 51°54' E 004°22'0 0.0
2015-Mar-23 05:28N 51°54' E 004°22'0 0.0
2015-Mar-23 04:19N 51°54' E 004°22'0 0.0
2015-Mar-23 03:22N 51°54' E 004°22'0 0.0
2015-Mar-23 02:28N 51°54' E 004°22'0 0.0
2015-Mar-23 01:25N 51°54' E 004°22'0 0.0
2015-Mar-23 00:31N 51°54' E 004°22'0 0.0
2015-Mar-22 23:19N 51°54' E 004°22'0 0.0
2015-Mar-22 22:25N 51°54' E 004°22'0 0.0
2015-Mar-22 21:31N 51°54' E 004°22'0 0.0
2015-Mar-22 20:10N 51°54' E 004°22'0 0.0
2015-Mar-22 19:33N 51°54' E 004°22'2 2.4
2015-Mar-22 18:33N 51°54' E 004°18'8 8.4
2015-Mar-22 17:33N 51°59' E 004°07'9 9.2
2015-Mar-22 16:33N 51°60' E 003°52'12 9.8
2015-Mar-22 15:18N 51°56' E 003°33'910.1
2015-Mar-22 14:27N 51°54' E 003°19'37 7.6
2015-Mar-22 09:33N 51°38' E 002°26'6 5.7
2015-Mar-22 08:32N 51°33' E 002°19'6 6.3
2015-Mar-22 07:32N 51°29' E 002°12'7 7.3
2015-Mar-22 06:34N 51°24' E 002°04'8 7.9
2015-Mar-22 05:34N 51°18' E 001°56'8 8.1
2015-Mar-22 04:33N 51°12' E 001°47'9 8.5
2015-Mar-22 03:33N 51°05' E 001°39'10 9.5
2015-Mar-22 02:32N 50°56' E 001°31'326 7.8
2015-Mar-20 08:33N 48°01' W 005°31'  
Track history (hours):
 
Tides and Currents Weather Stations Pressure Air Temp Water Temp Dewpoint Dewpoint Depression Visibility Wind Speed Wind Dir Waves Ship Positions

Mugan

Last reported at 2015-Mar-28 15:32 UTC. Time now 2015-Mar-28 15:59 UTC.
Position N 53°47' E 006°02'.

Length 140 m; draft 4.4 m.

Type: Ship. MMSI: 256914000.

Date/timePositionNaut miles runAvg speedWind from/ knotsBaromVisibWave heightAir tempDewpointWater temp
2015-Mar-28 15:32N 53°47' E 006°02'46 7.6
2015-Mar-28 09:33N 53°59' E 007°17'10 9.4
2015-Mar-28 08:31N 54°01' E 007°33'9 9.6
2015-Mar-28 07:34N 54°02' E 007°48'9 9.3
2015-Mar-28 06:32N 54°01' E 008°05'9 8.8
2015-Mar-28 05:33N 53°60' E 008°19'9 9.5
2015-Mar-28 04:33N 53°58' E 008°35'7 7.4
2015-Mar-28 03:33N 53°53' E 008°43'8 7.6
2015-Mar-28 02:33N 53°51' E 008°56'10 9.9
2015-Mar-28 01:33N 53°53' E 009°13'1111.3
2015-Mar-28 00:33N 53°45' E 009°26'1211.8
2015-Mar-27 23:33N 53°35' E 009°37'1110.8
2015-Mar-27 22:33N 53°33' E 009°55'2 1.5
2015-Mar-27 21:28N 53°31' E 009°56'0 0.0
2015-Mar-27 20:28N 53°31' E 009°56'0 0.0
2015-Mar-27 19:31N 53°31' E 009°56'0 0.0
2015-Mar-27 18:28N 53°31' E 009°56'0 0.0
2015-Mar-27 17:28N 53°31' E 009°56'0 0.0
2015-Mar-27 16:28N 53°31' E 009°56'0 0.0
2015-Mar-27 15:28N 53°31' E 009°56'0 0.0
2015-Mar-27 14:32N 53°31' E 009°56'0 0.0
2015-Mar-27 13:22N 53°31' E 009°56'0 0.0
2015-Mar-27 12:25N 53°31' E 009°56'0 0.0
2015-Mar-27 11:19N 53°31' E 009°56'0 0.0
2015-Mar-27 10:31N 53°31' E 009°56'0 0.0
2015-Mar-27 09:28N 53°31' E 009°56'0 0.0
2015-Mar-27 08:28N 53°31' E 009°56'0 0.0
2015-Mar-27 07:28N 53°31' E 009°56'0 0.0
2015-Mar-27 06:16N 53°31' E 009°56'0 0.0
2015-Mar-27 05:28N 53°31' E 009°56'0 0.0
2015-Mar-27 04:25N 53°31' E 009°56'0 0.0
2015-Mar-27 03:31N 53°31' E 009°56'0 0.0
2015-Mar-27 02:31N 53°31' E 009°56'0 0.0
2015-Mar-27 01:28N 53°31' E 009°56'0 0.0
2015-Mar-27 00:31N 53°31' E 009°56'0 0.0
2015-Mar-26 23:31N 53°31' E 009°56'0 0.0
2015-Mar-26 22:25N 53°31' E 009°56'0 0.0
2015-Mar-26 21:31N 53°31' E 009°56'0 0.0
2015-Mar-26 20:28N 53°31' E 009°56'0 0.0
2015-Mar-26 19:25N 53°31' E 009°56'0 0.0
2015-Mar-26 18:28N 53°31' E 009°56'0 0.0
2015-Mar-26 17:28N 53°31' E 009°56'0 0.0
2015-Mar-26 16:32N 53°31' E 009°56'0 0.5
2015-Mar-26 15:33N 53°32' E 009°56'9 9.3
2015-Mar-26 14:33N 53°34' E 009°41'9 9.0
2015-Mar-26 13:33N 53°40' E 009°30'8 8.3
2015-Mar-26 12:33N 53°47' E 009°23'8 7.8
2015-Mar-26 11:33N 53°53' E 009°13'6 6.1
2015-Mar-26 10:34N 53°52' E 009°03'7 6.6
2015-Mar-26 09:33N 53°50' E 008°52'6 5.7
2015-Mar-26 08:33N 53°52' E 008°43'6 6.2
2015-Mar-26 07:33N 53°57' E 008°37'8 8.0
2015-Mar-26 06:33N 53°59' E 008°23'9 8.7
2015-Mar-26 05:32N 53°59' E 008°08'5 5.0
2015-Mar-26 04:32N 54°04' E 008°05'0 0.1
2015-Mar-26 03:31N 54°04' E 008°05'0 0.0
2015-Mar-26 02:28N 54°04' E 008°05'0 0.0
2015-Mar-26 01:31N 54°04' E 008°05'0 0.0
2015-Mar-26 00:28N 54°04' E 008°05'0 0.0
2015-Mar-25 23:31N 54°04' E 008°05'0 0.1
2015-Mar-25 22:22N 54°04' E 008°05'0 0.1
2015-Mar-25 21:28N 54°04' E 008°05'0 0.0
2015-Mar-25 20:31N 54°04' E 008°05'0 0.0
2015-Mar-25 19:25N 54°04' E 008°05'0 0.0
2015-Mar-25 18:19N 54°04' E 008°05'0 0.0
2015-Mar-25 17:31N 54°04' E 008°05'0 0.0
2015-Mar-25 16:31N 54°04' E 008°05'0 0.0
2015-Mar-25 15:28N 54°04' E 008°05'0 0.0
2015-Mar-25 14:28N 54°04' E 008°05'1 1.1
2015-Mar-25 13:33N 54°03' E 008°04'9 8.5
2015-Mar-25 12:32N 53°58' E 007°53'9 8.7
2015-Mar-25 11:32N 53°55' E 007°39'9 8.7
2015-Mar-25 10:33N 53°53' E 007°25'8 8.4
2015-Mar-25 09:33N 53°51' E 007°11'7 6.9
2015-Mar-25 08:31N 53°49' E 006°59'22 5.5
2015-Mar-25 04:29N 53°44' E 006°23'6 6.3
2015-Mar-25 03:33N 53°43' E 006°13'7 6.5
2015-Mar-25 02:33N 53°41' E 006°02'7 7.1
2015-Mar-25 01:33N 53°39' E 005°51'8 7.8
2015-Mar-25 00:34N 53°36' E 005°39'8 8.3
2015-Mar-24 23:33N 53°33' E 005°26'8 8.5
2015-Mar-24 22:33N 53°30' E 005°12'9 8.6
2015-Mar-24 21:33N 53°27' E 004°59'9 8.8
2015-Mar-24 20:33N 53°24' E 004°45'27 9.1
2015-Mar-24 17:33N 53°00' E 004°23'9 8.9
2015-Mar-24 16:34N 52°52' E 004°16'8 8.2
2015-Mar-24 15:33N 52°45' E 004°09'8 8.0
2015-Mar-24 14:33N 52°39' E 004°02'8 8.0
2015-Mar-24 13:33N 52°32' E 003°55'9 7.8
2015-Mar-24 12:22N 52°23' E 003°53'7 7.7
2015-Mar-24 11:31N 52°16' E 003°53'8 8.0
2015-Mar-24 10:33N 52°08' E 003°54'7 6.9
2015-Mar-24 09:33N 52°02' E 003°57'1313.0
2015-Mar-24 08:33N 51°55' E 004°15'4 3.8
2015-Mar-24 07:28N 51°54' E 004°22'0 0.0
2015-Mar-24 06:28N 51°54' E 004°22'0 0.0
2015-Mar-24 05:31N 51°54' E 004°22'0 0.0
2015-Mar-24 04:28N 51°54' E 004°22'0 0.0
2015-Mar-24 03:31N 51°54' E 004°22'0 0.0
2015-Mar-24 02:31N 51°54' E 004°22'0 0.0
2015-Mar-24 01:31N 51°54' E 004°22'0 0.0
2015-Mar-24 00:25N 51°54' E 004°22'0 0.0
2015-Mar-23 23:28N 51°54' E 004°22'0 0.0
2015-Mar-23 22:22N 51°54' E 004°22'0 0.0
2015-Mar-23 21:22N 51°54' E 004°22'0 0.0
2015-Mar-23 20:28N 51°54' E 004°22'0 0.0
2015-Mar-23 19:31N 51°54' E 004°22'0 0.0
2015-Mar-23 18:22N 51°54' E 004°22'0 0.0
2015-Mar-23 17:31N 51°54' E 004°22'0 0.0
2015-Mar-23 16:28N 51°54' E 004°22'0 0.0
2015-Mar-23 15:31N 51°54' E 004°22'0 0.0
2015-Mar-23 14:28N 51°54' E 004°22'0 0.0
2015-Mar-23 13:28N 51°54' E 004°22'0 0.0
2015-Mar-23 12:28N 51°54' E 004°22'0 0.0
2015-Mar-23 11:22N 51°54' E 004°22'0 0.0
2015-Mar-23 10:31N 51°54' E 004°22'0 0.0
2015-Mar-23 09:28N 51°54' E 004°22'0 0.0
2015-Mar-23 08:22N 51°54' E 004°22'0 0.0
2015-Mar-23 07:31N 51°54' E 004°22'0 0.0
2015-Mar-23 06:28N 51°54' E 004°22'0 0.0
2015-Mar-23 05:28N 51°54' E 004°22'0 0.0
2015-Mar-23 04:19N 51°54' E 004°22'0 0.0
2015-Mar-23 03:22N 51°54' E 004°22'0 0.0
2015-Mar-23 02:28N 51°54' E 004°22'0 0.0
2015-Mar-23 01:25N 51°54' E 004°22'0 0.0
2015-Mar-23 00:31N 51°54' E 004°22'0 0.0
2015-Mar-22 23:19N 51°54' E 004°22'0 0.0
2015-Mar-22 22:25N 51°54' E 004°22'0 0.0
2015-Mar-22 21:31N 51°54' E 004°22'0 0.0
2015-Mar-22 20:10N 51°54' E 004°22'0 0.0
2015-Mar-22 19:33N 51°54' E 004°22'2 2.4
2015-Mar-22 18:33N 51°54' E 004°18'8 8.4
2015-Mar-22 17:33N 51°59' E 004°07'9 9.2
2015-Mar-22 16:33N 51°60' E 003°52'12 9.8
2015-Mar-22 15:18N 51°56' E 003°33'910.1
2015-Mar-22 14:27N 51°54' E 003°19'37 7.6
2015-Mar-22 09:33N 51°38' E 002°26'6 5.7
2015-Mar-22 08:32N 51°33' E 002°19'6 6.3
2015-Mar-22 07:32N 51°29' E 002°12'7 7.3
2015-Mar-22 06:34N 51°24' E 002°04'8 7.9
2015-Mar-22 05:34N 51°18' E 001°56'8 8.1
2015-Mar-22 04:33N 51°12' E 001°47'9 8.5
2015-Mar-22 03:33N 51°05' E 001°39'10 9.5
2015-Mar-22 02:32N 50°56' E 001°31'326 7.8
2015-Mar-20 08:33N 48°01' W 005°31'  

Dump ship's entire track history